Time;durP1;ratioP1;P1;durP2;ratioP2;P2;SDS_P1;SDS_P2;PMS_P1;PMS_P2;Temp;Humidity;BMP_temperature;BMP_pressure;BME280_temperature;BME280_humidity;BME280_pressure;Samples;Min_cycle;Max_cycle;Signal;HPM_P1;HPM_P2
2024/01/13 00:00:37;;;;;;;25.63;17.55;;;;;;;1.37;100.00;102257.75;4816294;29;20137;-95
2024/01/13 00:03:03;;;;;;;22.15;16.83;;;;;;;1.48;100.00;102260.94;4846078;29;20049;-94
2024/01/13 00:44:37;;;;;;;23.08;16.80;;;;;;;2.01;100.00;102193.47;4777760;30;20034;-92
2024/01/13 00:48:40;;;;;;;27.92;17.17;;;;;;;2.05;100.00;102189.00;4779725;29;20062;-94
2024/01/13 00:52:10;;;;;;;24.83;17.20;;;;;;;2.08;100.00;102188.94;4713802;30;20134;-95
2024/01/13 01:00:13;;;;;;;25.67;18.35;;;;;;;2.11;100.00;102170.56;4751227;30;20123;-94
2024/01/13 01:30:49;;;;;;;;;;;;;;;;;;;;;
2024/01/13 02:09:15;;;;;;;29.17;18.98;;;;;;;1.81;100.00;102079.31;4758463;30;20046;-94
2024/01/13 02:11:47;;;;;;;34.28;20.80;;;;;;;1.83;100.00;102077.53;4775008;29;20043;-94
2024/01/13 02:14:16;;;;;;;30.08;19.45;;;;;;;1.85;100.00;102076.56;4797395;29;20051;-94
2024/01/13 02:16:45;;;;;;;30.60;20.15;;;;;;;1.90;100.00;102070.34;4868852;29;20474;-94
2024/01/13 02:19:22;;;;;;;30.00;18.73;;;;;;;1.89;100.00;102066.03;4872048;29;20047;-94
2024/01/13 02:23:03;;;;;;;29.65;19.27;;;;;;;1.95;100.00;102058.03;4880286;29;20043;-94
2024/01/13 02:25:32;;;;;;;27.73;18.65;;;;;;;1.90;100.00;102063.38;4885608;29;20028;-94
2024/01/13 02:27:58;;;;;;;27.55;18.63;;;;;;;1.88;100.00;102051.31;4871224;29;20032;-94
2024/01/13 02:30:24;;;;;;;29.60;19.35;;;;;;;1.91;100.00;102054.66;4902572;29;20039;-94
2024/01/13 02:32:50;;;;;;;30.73;19.15;;;;;;;1.86;100.00;102043.53;4921699;23;20433;-94
2024/01/13 02:35:31;;;;;;;26.90;19.55;;;;;;;1.92;100.00;102042.47;4888736;29;20046;-94
2024/01/13 02:38:11;;;;;;;31.58;18.98;;;;;;;1.85;100.00;102024.41;4898170;29;20050;-93
2024/01/13 02:40:52;;;;;;;27.63;19.10;;;;;;;1.98;100.00;102024.03;4915733;29;20028;-95
2024/01/13 02:43:22;;;;;;;27.08;17.60;;;;;;;1.97;100.00;102033.63;4901124;29;20131;-93
2024/01/13 02:45:53;;;;;;;29.92;19.15;;;;;;;1.94;100.00;102032.88;4902806;29;20044;-94
2024/01/13 02:48:26;;;;;;;31.08;19.23;;;;;;;1.92;100.00;102032.03;4915470;29;20044;-94
2024/01/13 02:51:01;;;;;;;26.05;18.13;;;;;;;1.89;100.00;102021.72;4885853;29;20051;-94
2024/01/13 02:53:28;;;;;;;26.33;18.05;;;;;;;1.88;100.00;102025.22;4887039;29;20039;-94
2024/01/13 02:56:04;;;;;;;31.02;19.30;;;;;;;1.79;100.00;102016.78;4905034;29;20047;-94
2024/01/13 02:58:30;;;;;;;30.10;18.42;;;;;;;1.85;100.00;102028.78;4910017;23;20086;-95
2024/01/13 03:00:56;;;;;;;32.78;19.77;;;;;;;1.84;100.00;102034.91;4909105;29;20443;-95
2024/01/13 03:03:23;;;;;;;33.33;20.17;;;;;;;1.84;100.00;102025.34;5245744;23;21268;-95
2024/01/13 03:05:49;;;;;;;27.73;19.20;;;;;;;1.87;100.00;102026.97;4930424;28;20126;-95
2024/01/13 03:12:59;;;;;;;29.40;18.83;;;;;;;1.90;100.00;102019.06;5153636;23;20194;-96
2024/01/13 03:15:25;;;;;;;28.70;19.63;;;;;;;1.93;100.00;102011.13;4904741;29;20119;-96
2024/01/13 03:17:53;;;;;;;28.25;18.88;;;;;;;2.01;100.00;102010.88;4921725;23;20047;-94
2024/01/13 03:20:23;;;;;;;32.85;19.90;;;;;;;1.96;100.00;101999.75;4923952;29;20374;-94
2024/01/13 03:22:52;;;;;;;27.45;19.15;;;;;;;1.94;100.00;102015.44;4914511;29;20425;-95
2024/01/13 03:25:18;;;;;;;29.52;20.33;;;;;;;1.95;100.00;102016.31;4923129;29;20031;-95
2024/01/13 03:27:44;;;;;;;29.65;18.90;;;;;;;1.93;100.00;102007.66;4909505;29;20067;-96
2024/01/13 03:30:10;;;;;;;25.15;17.67;;;;;;;1.94;100.00;102017.22;4906597;29;20070;-95
2024/01/13 03:32:35;;;;;;;29.55;19.80;;;;;;;1.85;100.00;102006.16;4910868;29;20031;-96
2024/01/13 03:37:53;;;;;;;26.23;18.40;;;;;;;1.88;100.00;102009.59;4922263;29;20074;-94
2024/01/13 03:40:18;;;;;;;28.42;19.60;;;;;;;1.85;100.00;102003.56;4905046;28;20023;-95
2024/01/13 03:42:45;;;;;;;29.20;19.77;;;;;;;1.88;100.00;102006.97;4905562;29;20032;-95
2024/01/13 03:45:12;;;;;;;30.35;18.90;;;;;;;1.91;100.00;101996.44;4904675;29;20035;-95
2024/01/13 03:47:41;;;;;;;29.75;19.33;;;;;;;1.95;100.00;101995.44;4903796;29;20071;-94
2024/01/13 03:50:08;;;;;;;27.83;19.80;;;;;;;1.98;100.00;101998.81;4902290;29;20027;-95
2024/01/13 03:52:34;;;;;;;31.38;20.02;;;;;;;1.98;100.00;101993.59;4901383;29;20046;-95
2024/01/13 03:55:00;;;;;;;34.13;19.83;;;;;;;2.02;100.00;101999.56;4902937;29;20040;-95
2024/01/13 03:57:26;;;;;;;26.45;18.88;;;;;;;2.00;100.00;101987.47;4918745;29;20503;-95
2024/01/13 03:59:51;;;;;;;25.38;17.92;;;;;;;1.97;100.00;101981.47;4902553;28;20047;-96
2024/01/13 04:02:17;;;;;;;29.50;20.45;;;;;;;1.98;100.00;101985.78;4910452;29;20651;-95
2024/01/13 04:04:43;;;;;;;26.33;19.27;;;;;;;1.97;100.00;101981.47;4902183;29;20035;-95
2024/01/13 04:07:10;;;;;;;31.35;20.02;;;;;;;2.01;100.00;101990.03;4907999;29;20247;-95
2024/01/13 04:09:39;;;;;;;29.35;19.30;;;;;;;1.97;100.00;101981.47;4915902;29;20123;-95
2024/01/13 04:12:05;;;;;;;27.13;19.17;;;;;;;2.03;100.00;101988.22;4900160;29;20038;-95
2024/01/13 04:14:32;;;;;;;31.52;20.10;;;;;;;2.00;100.00;101972.69;4921160;29;20043;-95
2024/01/13 04:16:59;;;;;;;28.63;18.60;;;;;;;2.06;100.00;101969.00;4895238;29;20381;-95
2024/01/13 04:19:25;;;;;;;32.45;19.85;;;;;;;2.04;100.00;101960.41;4922045;29;20051;-95
2024/01/13 04:21:55;;;;;;;28.33;19.27;;;;;;;1.98;100.00;101964.03;4922453;29;20051;-95
2024/01/13 04:24:23;;;;;;;27.30;18.20;;;;;;;1.98;100.00;101967.50;4908853;29;20027;-96
2024/01/13 04:26:49;;;;;;;30.08;19.67;;;;;;;1.94;100.00;101957.22;4900435;29;20042;-95
2024/01/13 04:29:15;;;;;;;28.05;18.85;;;;;;;1.88;100.00;101949.63;4904808;29;20038;-95
2024/01/13 04:31:41;;;;;;;29.05;18.35;;;;;;;1.91;100.00;101954.72;4904537;29;20031;-95
2024/01/13 04:34:06;;;;;;;29.55;19.92;;;;;;;1.90;100.00;101938.22;4922471;29;20042;-95
2024/01/13 04:36:32;;;;;;;27.83;19.02;;;;;;;1.93;100.00;101935.50;4921165;29;20027;-95
2024/01/13 04:38:58;;;;;;;27.55;17.73;;;;;;;1.95;100.00;101941.53;4906154;29;20034;-96
2024/01/13 04:41:24;;;;;;;27.83;18.58;;;;;;;2.03;100.00;101941.28;4919044;29;20035;-96
2024/01/13 04:43:50;;;;;;;29.30;20.17;;;;;;;2.08;100.00;101943.72;4902953;29;20099;-95
2024/01/13 04:46:16;;;;;;;25.38;18.05;;;;;;;2.08;100.00;101941.97;4904122;29;20028;-95
2024/01/13 04:48:42;;;;;;;31.98;19.08;;;;;;;2.11;100.00;101943.63;4919511;29;20055;-95
2024/01/13 04:51:08;;;;;;;30.30;20.08;;;;;;;2.13;100.00;101927.91;4902730;29;20024;-95
2024/01/13 04:53:33;;;;;;;28.02;19.42;;;;;;;2.17;100.00;101935.59;4928620;28;20036;-95
2024/01/13 04:56:00;;;;;;;31.25;20.35;;;;;;;2.20;100.00;101927.66;4937559;29;20031;-96
2024/01/13 04:58:25;;;;;;;31.30;18.58;;;;;;;2.21;100.00;101921.53;4905548;29;20503;-95
2024/01/13 05:00:51;;;;;;;34.28;21.02;;;;;;;2.23;100.00;101929.28;4917848;29;20032;-96
2024/01/13 05:03:17;;;;;;;33.28;22.02;;;;;;;2.23;100.00;101919.72;4922303;28;20039;-96
2024/01/13 05:05:43;;;;;;;33.25;21.20;;;;;;;2.27;100.00;101907.44;4905384;29;20856;-96
2024/01/13 05:08:09;;;;;;;33.83;22.15;;;;;;;2.25;100.00;101911.84;4905119;29;20138;-95
2024/01/13 05:10:35;;;;;;;31.70;21.52;;;;;;;2.27;100.00;101909.19;4915495;29;20036;-96
2024/01/13 05:13:01;;;;;;;34.05;21.02;;;;;;;2.26;100.00;101910.97;4904888;29;20038;-95
2024/01/13 05:15:27;;;;;;;33.65;20.35;;;;;;;2.26;100.00;101916.19;4909896;29;20043;-95
2024/01/13 05:17:52;;;;;;;35.75;22.00;;;;;;;2.25;100.00;101918.81;4911728;29;20086;-95
2024/01/13 05:20:18;;;;;;;28.60;20.58;;;;;;;2.27;100.00;101909.19;4928892;29;20046;-96
2024/01/13 05:22:44;;;;;;;30.02;20.55;;;;;;;2.25;100.00;101911.84;4909110;29;20035;-95
2024/01/13 05:25:10;;;;;;;31.13;20.92;;;;;;;2.25;100.00;101903.16;4918181;29;20066;-95
2024/01/13 05:27:35;;;;;;;33.42;21.52;;;;;;;2.26;100.00;101904.88;4914582;29;20074;-95
2024/01/13 05:30:01;;;;;;;33.47;21.05;;;;;;;2.29;100.00;101902.16;4917243;29;20477;-95
2024/01/13 05:32:27;;;;;;;33.72;21.77;;;;;;;2.28;100.00;101911.72;4910597;29;20028;-95
2024/01/13 05:34:52;;;;;;;35.00;21.80;;;;;;;2.28;100.00;101898.69;4933079;29;20368;-94
2024/01/13 05:37:18;;;;;;;34.47;20.48;;;;;;;2.28;100.00;101901.28;4925721;29;20042;-95
2024/01/13 05:39:44;;;;;;;29.02;19.70;;;;;;;2.25;100.00;101884.88;4924160;28;20042;-95
2024/01/13 05:42:10;;;;;;;30.05;18.75;;;;;;;2.26;100.00;101886.63;4907670;29;20107;-95
2024/01/13 05:44:35;;;;;;;28.73;18.67;;;;;;;2.27;100.00;101883.09;4933207;29;20046;-95
2024/01/13 05:47:01;;;;;;;28.67;18.75;;;;;;;2.25;100.00;101877.06;4926445;29;20387;-95
2024/01/13 05:49:27;;;;;;;31.98;20.60;;;;;;;2.25;100.00;101883.16;4906954;29;20035;-95
2024/01/13 05:51:52;;;;;;;26.13;18.88;;;;;;;2.21;100.00;101876.34;4923116;29;20054;-95
2024/01/13 05:54:18;;;;;;;28.65;18.90;;;;;;;2.21;100.00;101874.56;4904990;29;20039;-95
2024/01/13 05:56:44;;;;;;;31.58;18.88;;;;;;;2.22;100.00;101870.22;4920893;29;20023;-95
2024/01/13 05:59:09;;;;;;;29.88;19.10;;;;;;;2.22;100.00;101865.00;4901200;29;20067;-96
2024/01/13 06:01:35;;;;;;;26.70;18.17;;;;;;;2.21;100.00;101871.13;4901933;29;20071;-95
2024/01/13 06:04:01;;;;;;;29.13;19.42;;;;;;;2.21;100.00;101864.13;4908235;29;20043;-95
2024/01/13 06:06:27;;;;;;;26.90;17.52;;;;;;;2.18;100.00;101858.19;4922456;29;20036;-95
2024/01/13 06:08:52;;;;;;;29.95;18.45;;;;;;;2.20;100.00;101852.00;4903430;29;20536;-95
2024/01/13 06:11:19;;;;;;;29.27;18.65;;;;;;;2.20;100.00;101858.97;4900148;29;20035;-95
2024/01/13 06:13:44;;;;;;;33.42;20.55;;;;;;;2.18;100.00;101845.97;4909381;29;20178;-95
2024/01/13 06:16:10;;;;;;;30.67;18.17;;;;;;;2.21;100.00;101850.25;4924408;29;20039;-95
2024/01/13 06:18:36;;;;;;;28.65;19.63;;;;;;;2.25;100.00;101849.22;4922126;29;20054;-94
2024/01/13 06:21:02;;;;;;;30.23;19.65;;;;;;;2.24;100.00;101844.94;4924339;29;20031;-95
2024/01/13 06:23:28;;;;;;;28.42;19.15;;;;;;;2.23;100.00;101851.88;4940944;28;20034;-95
2024/01/13 06:25:54;;;;;;;29.35;19.23;;;;;;;2.21;100.00;101837.22;4924289;29;20066;-95
2024/01/13 06:28:19;;;;;;;27.98;19.42;;;;;;;2.20;100.00;101835.47;4909053;29;20050;-95
2024/01/13 06:30:45;;;;;;;30.50;18.60;;;;;;;2.23;100.00;101843.19;4910790;29;20082;-94
2024/01/13 06:33:11;;;;;;;30.13;19.13;;;;;;;2.18;100.00;101832.94;4906129;29;20031;-95
2024/01/13 06:35:36;;;;;;;31.45;19.67;;;;;;;2.16;100.00;101836.50;4906875;29;20034;-96
2024/01/13 06:38:03;;;;;;;28.58;19.27;;;;;;;2.15;100.00;101837.44;4928881;29;20039;-95
2024/01/13 06:40:29;;;;;;;28.63;19.10;;;;;;;2.11;100.00;101826.25;4939836;29;20039;-95
2024/01/13 06:42:54;;;;;;;28.10;18.50;;;;;;;2.09;100.00;101826.31;4902064;29;20035;-96
2024/01/13 06:45:20;;;;;;;29.48;18.15;;;;;;;2.14;100.00;101825.28;4919286;29;20424;-96
2024/01/13 06:47:46;;;;;;;27.52;18.67;;;;;;;2.15;100.00;101832.22;4907545;28;20063;-95
2024/01/13 06:50:12;;;;;;;27.48;18.52;;;;;;;2.18;100.00;101827.72;4908232;29;20031;-95
2024/01/13 06:52:38;;;;;;;26.05;16.52;;;;;;;2.16;100.00;101818.25;4916465;29;20039;-94
2024/01/13 06:55:07;;;;;;;26.33;17.80;;;;;;;2.21;100.00;101824.16;4904218;29;20132;-95
2024/01/13 06:57:33;;;;;;;28.33;18.58;;;;;;;2.15;100.00;101817.38;4912498;29;20031;-95
2024/01/13 06:59:59;;;;;;;25.77;17.23;;;;;;;2.15;100.00;101811.34;4916298;29;20220;-94
2024/01/13 07:02:24;;;;;;;30.65;17.65;;;;;;;2.14;100.00;101814.84;4937194;29;20046;-96
2024/01/13 07:04:50;;;;;;;25.63;17.45;;;;;;;2.14;100.00;101807.00;4904214;29;20054;-96
2024/01/13 07:07:16;;;;;;;27.90;18.25;;;;;;;2.16;100.00;101807.81;4905626;29;20031;-95
2024/01/13 07:09:42;;;;;;;26.60;16.98;;;;;;;2.15;100.00;101806.97;4908206;29;20035;-95
2024/01/13 07:12:09;;;;;;;25.20;17.25;;;;;;;2.17;100.00;101801.69;4904937;29;20365;-95
2024/01/13 07:14:35;;;;;;;28.88;17.85;;;;;;;2.13;100.00;101805.31;4902501;29;20047;-95
2024/01/13 07:17:01;;;;;;;27.02;17.83;;;;;;;2.14;100.00;101797.44;4899450;29;20039;-95
2024/01/13 07:19:27;;;;;;;26.58;17.25;;;;;;;2.13;100.00;101797.50;4906612;29;20043;-96
2024/01/13 07:21:53;;;;;;;28.38;19.25;;;;;;;2.11;100.00;101794.94;4927958;29;20035;-95
2024/01/13 07:24:19;;;;;;;27.67;17.20;;;;;;;2.13;100.00;101789.66;4902094;29;20028;-95
2024/01/13 07:26:45;;;;;;;26.92;18.00;;;;;;;2.15;100.00;101791.31;4908222;29;20035;-95
2024/01/13 07:29:11;;;;;;;32.30;17.35;;;;;;;2.20;100.00;101783.31;4922295;29;20035;-95
2024/01/13 07:31:37;;;;;;;31.92;19.15;;;;;;;2.19;100.00;101785.09;4908177;28;20027;-95
2024/01/13 07:34:02;;;;;;;28.90;17.88;;;;;;;2.21;100.00;101775.44;4921999;29;20099;-95
2024/01/13 07:36:28;;;;;;;30.17;18.15;;;;;;;2.22;100.00;101776.28;4906392;29;20476;-95
2024/01/13 07:38:54;;;;;;;26.70;18.45;;;;;;;2.23;100.00;101770.16;4907477;29;20039;-95
2024/01/13 07:41:20;;;;;;;26.00;18.35;;;;;;;2.23;100.00;101768.41;4913129;29;20094;-96
2024/01/13 07:43:46;;;;;;;26.23;18.20;;;;;;;2.24;100.00;101761.44;4905988;29;20039;-96
2024/01/13 07:46:14;;;;;;;28.25;18.85;;;;;;;2.23;100.00;101763.19;4904307;29;20499;-96
2024/01/13 07:48:40;;;;;;;28.67;18.02;;;;;;;2.20;100.00;101762.44;4922206;29;20126;-95
2024/01/13 07:51:05;;;;;;;30.58;17.27;;;;;;;2.18;100.00;101748.63;4906043;29;20130;-95
2024/01/13 07:53:31;;;;;;;23.92;17.08;;;;;;;2.21;100.00;101751.13;4917482;28;20067;-95
2024/01/13 07:55:58;;;;;;;27.45;18.55;;;;;;;2.24;100.00;101745.78;4920314;29;20043;-95
2024/01/13 07:58:24;;;;;;;29.70;18.00;;;;;;;2.25;100.00;101744.00;4920899;29;20050;-95
2024/01/13 08:00:50;;;;;;;26.70;17.95;;;;;;;2.24;100.00;101740.56;4903581;29;20417;-95
2024/01/13 08:03:16;;;;;;;29.65;18.02;;;;;;;2.25;100.00;101741.41;4912647;29;20047;-95
2024/01/13 08:05:42;;;;;;;31.30;18.23;;;;;;;2.26;100.00;101736.16;4907290;29;20094;-96
2024/01/13 08:08:07;;;;;;;22.55;15.68;;;;;;;2.27;100.00;101731.75;4906633;29;20613;-96
2024/01/13 08:10:36;;;;;;;24.13;17.05;;;;;;;2.26;100.00;101727.47;4919860;29;20028;-95
2024/01/13 08:13:03;;;;;;;25.63;17.17;;;;;;;2.22;100.00;101719.75;4915084;29;20032;-95
2024/01/13 08:15:28;;;;;;;24.10;16.08;;;;;;;2.15;100.00;101730.47;4922407;29;20031;-95
2024/01/13 08:17:54;;;;;;;24.60;15.75;;;;;;;2.09;100.00;101728.94;4920835;29;20377;-95
2024/01/13 08:20:20;;;;;;;28.83;17.55;;;;;;;2.15;100.00;101725.25;4919431;29;20043;-94
2024/01/13 08:22:46;;;;;;;26.73;16.65;;;;;;;2.16;100.00;101734.78;4920845;29;20101;-95
2024/01/13 08:25:13;;;;;;;22.17;15.25;;;;;;;2.12;100.00;101726.22;4901483;29;20476;-95
2024/01/13 08:27:39;;;;;;;23.92;16.45;;;;;;;2.09;100.00;101726.31;4920903;28;20074;-95
2024/01/13 08:30:06;;;;;;;23.58;16.83;;;;;;;2.05;100.00;101725.59;4916780;29;20066;-95
2024/01/13 08:32:31;;;;;;;21.80;15.13;;;;;;;2.04;100.00;101729.09;4918117;29;20031;-95
2024/01/13 08:34:58;;;;;;;26.08;16.30;;;;;;;2.04;100.00;101736.94;4934305;29;20028;-95
2024/01/13 08:37:24;;;;;;;22.38;14.60;;;;;;;2.04;100.00;101725.66;4916015;28;20057;-96
2024/01/13 08:39:50;;;;;;;27.02;18.73;;;;;;;2.06;100.00;101732.50;4933003;28;20591;-95
2024/01/13 08:42:15;;;;;;;26.30;16.75;;;;;;;2.03;100.00;101735.25;4925714;29;20031;-95
2024/01/13 08:44:41;;;;;;;23.98;16.27;;;;;;;2.03;100.00;101734.38;4917957;28;20473;-95
2024/01/13 08:47:09;;;;;;;27.00;18.00;;;;;;;2.00;100.00;101729.28;4902894;29;20484;-96
2024/01/13 08:49:35;;;;;;;26.42;17.67;;;;;;;2.02;100.00;101730.06;4938699;28;20023;-95
2024/01/13 08:52:01;;;;;;;29.88;18.08;;;;;;;1.98;100.00;101732.81;4919198;29;20046;-95
2024/01/13 08:54:27;;;;;;;26.77;18.35;;;;;;;1.99;100.00;101733.66;4917141;28;20122;-95
2024/01/13 08:56:53;;;;;;;26.65;18.27;;;;;;;2.04;100.00;101734.31;4907300;28;20038;-96
2024/01/13 08:59:19;;;;;;;30.15;19.58;;;;;;;2.06;100.00;101722.09;4902540;29;20039;-95
2024/01/13 09:01:45;;;;;;;28.67;19.05;;;;;;;2.09;100.00;101721.09;4901710;29;20036;-95
2024/01/13 09:04:11;;;;;;;26.73;17.88;;;;;;;2.11;100.00;101724.50;4915226;28;20023;-95
2024/01/13 09:06:37;;;;;;;26.55;18.23;;;;;;;2.13;100.00;101722.72;4920062;29;20032;-95
2024/01/13 09:09:04;;;;;;;29.20;19.48;;;;;;;2.16;100.00;101721.72;4921817;28;20031;-94
2024/01/13 09:11:30;;;;;;;34.80;21.42;;;;;;;2.23;100.00;101726.66;4909351;29;20375;-95
2024/01/13 09:13:56;;;;;;;30.42;20.00;;;;;;;2.27;100.00;101731.75;4916651;28;20028;-95
2024/01/13 09:16:22;;;;;;;34.67;19.10;;;;;;;2.29;100.00;101727.34;4917616;29;20543;-95
2024/01/13 09:18:47;;;;;;;26.55;18.05;;;;;;;2.34;100.00;101722.81;4904896;29;20062;-94
2024/01/13 09:21:17;;;;;;;30.25;19.80;;;;;;;2.38;100.00;101707.88;4921826;29;20027;-95
2024/01/13 09:23:42;;;;;;;30.83;19.00;;;;;;;2.33;100.00;101714.13;4906313;29;20031;-95
2024/01/13 09:26:08;;;;;;;27.80;18.73;;;;;;;2.31;100.00;101715.09;4920736;29;20035;-95
2024/01/13 09:28:34;;;;;;;27.40;19.05;;;;;;;2.32;100.00;101711.56;4922008;28;20027;-95
2024/01/13 09:30:59;;;;;;;28.23;18.17;;;;;;;2.37;100.00;101714.88;4891274;29;20040;-95
2024/01/13 09:33:25;;;;;;;26.42;18.27;;;;;;;2.42;100.00;101714.69;4886068;29;20044;-95
2024/01/13 09:35:51;;;;;;;34.10;20.27;;;;;;;2.43;100.00;101706.78;4916044;29;20038;-96
2024/01/13 09:38:17;;;;;;;28.98;18.33;;;;;;;2.43;100.00;101704.19;4888035;29;20062;-95
2024/01/13 09:40:43;;;;;;;34.85;19.80;;;;;;;2.45;100.00;101709.34;4901957;29;20068;-95
2024/01/13 09:43:32;;;;;;;31.25;20.48;;;;;;;2.54;100.00;101700.28;4904909;29;20039;-95
2024/01/13 09:45:58;;;;;;;31.50;20.65;;;;;;;2.48;100.00;101698.78;4900691;29;20534;-95
2024/01/13 09:48:23;;;;;;;31.25;20.33;;;;;;;2.47;100.00;101704.88;4916112;29;20036;-95
2024/01/13 09:50:54;;;;;;;30.88;20.58;;;;;;;2.53;100.00;101696.84;4905669;29;20042;-95
2024/01/13 09:53:30;;;;;;;31.95;19.80;;;;;;;2.63;100.00;101704.31;4902960;29;20042;-95
2024/01/13 09:56:13;;;;;;;29.08;18.08;;;;;;;2.59;100.00;101709.66;4896784;29;20043;-95
2024/01/13 09:58:39;;;;;;;27.10;19.17;;;;;;;2.58;100.00;101705.31;4906567;29;20040;-95
2024/01/13 10:01:06;;;;;;;29.98;19.15;;;;;;;2.66;100.00;101696.34;4899450;29;20498;-95
2024/01/13 10:03:32;;;;;;;30.35;19.30;;;;;;;2.64;100.00;101696.41;4901695;29;20038;-95
2024/01/13 10:05:59;;;;;;;31.45;19.13;;;;;;;2.64;100.00;101698.16;4904420;29;20036;-95
2024/01/13 10:08:32;;;;;;;28.63;18.85;;;;;;;2.73;100.00;101701.25;4891716;29;20044;-96
2024/01/13 10:11:04;;;;;;;27.33;18.95;;;;;;;2.71;100.00;101710.91;4885401;29;20445;-96
2024/01/13 10:13:30;;;;;;;30.15;19.20;;;;;;;2.66;100.00;101701.56;4920744;29;20039;-95
2024/01/13 10:15:56;;;;;;;29.27;18.73;;;;;;;2.69;100.00;101699.66;4903806;29;20039;-96
2024/01/13 10:18:25;;;;;;;26.65;18.27;;;;;;;2.75;100.00;101701.22;4904491;29;20044;-96
2024/01/13 10:20:52;;;;;;;29.25;19.77;;;;;;;2.77;100.00;101699.34;4899621;29;20031;-95
2024/01/13 10:23:18;;;;;;;26.70;17.73;;;;;;;2.82;100.00;101707.03;4905360;29;20032;-95
2024/01/13 10:25:44;;;;;;;28.58;18.80;;;;;;;2.87;100.00;101702.44;4901758;29;20130;-96
2024/01/13 10:28:09;;;;;;;24.85;17.90;;;;;;;2.91;100.00;101697.97;4904767;29;20054;-96
2024/01/13 10:30:36;;;;;;;27.70;19.05;;;;;;;2.92;100.00;101707.50;4931136;29;20032;-96
2024/01/13 10:33:02;;;;;;;28.50;19.25;;;;;;;2.90;100.00;101693.66;4887807;29;20067;-95
2024/01/13 10:35:28;;;;;;;32.80;20.77;;;;;;;2.91;100.00;101693.59;4900095;29;20429;-95
2024/01/13 10:37:58;;;;;;;30.00;19.52;;;;;;;3.03;100.00;101699.19;4906284;29;20086;-95
2024/01/13 10:40:27;;;;;;;28.30;18.33;;;;;;;3.06;100.00;101699.94;4913861;29;20123;-95
2024/01/13 10:42:57;;;;;;;28.98;19.70;;;;;;;3.10;100.00;101695.44;4876567;29;20059;-95
2024/01/13 10:45:24;;;;;;;27.52;18.50;;;;;;;3.12;100.00;101692.75;4900972;29;20076;-95
2024/01/13 10:47:54;;;;;;;24.08;17.42;;;;;;;3.14;100.00;101696.16;4894643;29;20048;-96
2024/01/13 10:50:20;;;;;;;32.28;18.63;;;;;;;3.10;100.00;101711.13;4902741;29;20044;-95
2024/01/13 10:53:15;;;;;;;26.30;17.55;;;;;;;3.12;100.00;101687.53;4888077;29;20035;-94
2024/01/13 10:55:42;;;;;;;27.00;17.33;;;;;;;3.08;100.00;101685.06;4922660;29;20131;-95
2024/01/13 10:58:09;;;;;;;23.33;17.15;;;;;;;3.12;100.00;101691.00;4904336;29;20044;-95
2024/01/13 11:00:37;;;;;;;26.05;17.95;;;;;;;3.14;100.00;101680.50;4895727;29;20088;-95
2024/01/13 11:03:04;;;;;;;26.73;17.95;;;;;;;3.15;100.00;101674.34;4892536;29;20425;-96
2024/01/13 11:05:32;;;;;;;25.65;17.70;;;;;;;3.21;100.00;101674.94;4903735;29;20640;-95
2024/01/13 11:07:59;;;;;;;27.25;18.13;;;;;;;3.22;100.00;101668.78;4919002;29;20106;-96
2024/01/13 11:10:36;;;;;;;28.42;19.58;;;;;;;3.28;100.00;101677.28;4905106;29;20039;-95
2024/01/13 11:13:10;;;;;;;26.88;17.63;;;;;;;3.30;100.00;101664.97;4891443;29;20040;-96
2024/01/13 11:15:46;;;;;;;25.13;16.88;;;;;;;3.33;100.00;101654.41;4902167;29;20090;-96
2024/01/13 11:18:19;;;;;;;25.38;16.73;;;;;;;3.37;100.00;101657.72;4901578;29;20036;-95
2024/01/13 11:21:00;;;;;;;22.10;15.70;;;;;;;3.46;100.00;101662.56;4910783;29;20043;-95
2024/01/13 11:23:26;;;;;;;23.77;16.92;;;;;;;3.43;100.00;101663.53;4904808;29;20090;-95
2024/01/13 11:25:52;;;;;;;23.83;16.73;;;;;;;3.47;100.00;101672.94;4898646;29;20432;-95
2024/01/13 11:28:18;;;;;;;22.88;16.48;;;;;;;3.52;100.00;101664.91;4922245;29;20036;-96
2024/01/13 11:30:46;;;;;;;24.40;16.60;;;;;;;3.63;100.00;101666.19;4901915;29;20035;-96
2024/01/13 11:33:13;;;;;;;24.98;17.25;;;;;;;3.68;100.00;101659.00;4888876;29;20040;-96
2024/01/13 11:35:40;;;;;;;22.38;15.50;;;;;;;3.71;100.00;101654.47;4887130;29;20283;-96
2024/01/13 11:38:06;;;;;;;21.83;15.93;;;;;;;3.75;100.00;101646.47;4912190;29;20041;-96
2024/01/13 11:40:32;;;;;;;21.00;14.38;;;;;;;3.77;100.00;101645.50;4896984;29;20035;-96
2024/01/13 11:43:07;;;;;;;18.73;14.18;;;;;;;3.85;100.00;101637.31;4900822;29;20043;-95
2024/01/13 11:45:40;;;;;;;20.10;13.57;;;;;;;3.84;100.00;101636.44;4916792;29;20037;-96
2024/01/13 11:48:40;;;;;;;18.95;14.10;;;;;;;3.84;100.00;101626.00;4900246;29;20035;-94
2024/01/13 11:51:18;;;;;;;16.80;12.77;;;;;;;3.76;100.00;101616.81;4922351;29;20035;-94
2024/01/13 11:53:44;;;;;;;18.73;13.52;;;;;;;3.81;100.00;101620.91;4888740;29;20031;-95
2024/01/13 11:56:12;;;;;;;20.33;14.40;;;;;;;3.84;100.00;101610.28;4887495;29;20040;-95
2024/01/13 11:58:39;;;;;;;18.35;13.38;;;;;;;3.94;100.00;101615.09;4918356;29;20039;-95
2024/01/13 12:01:06;;;;;;;20.63;14.55;;;;;;;3.94;100.00;101600.25;4913007;29;20036;-95
2024/01/13 12:03:32;;;;;;;19.45;13.70;;;;;;;4.00;100.00;101601.72;4919133;29;20031;-96
2024/01/13 12:05:59;;;;;;;18.85;13.43;;;;;;;4.12;100.00;101602.06;4897063;29;20039;-95
2024/01/13 12:08:26;;;;;;;19.98;14.20;;;;;;;4.21;100.00;101601.63;4895309;29;20174;-95
2024/01/13 12:10:53;;;;;;;19.90;14.65;;;;;;;4.26;100.00;101586.56;4883257;29;20066;-96
2024/01/13 12:13:24;;;;;;;18.17;13.75;;;;;;;4.30;100.00;101577.63;4909413;29;20025;-96
2024/01/13 12:15:50;;;;;;;17.60;13.18;;;;;;;4.35;100.00;101582.63;4910757;29;20039;-96
2024/01/13 12:18:25;;;;;;;18.45;13.07;;;;;;;4.42;100.00;101575.31;4884085;29;20061;-96
2024/01/13 12:21:00;;;;;;;18.40;13.65;;;;;;;4.45;100.00;101570.78;4884650;29;20473;-94
2024/01/13 12:23:27;;;;;;;19.35;15.13;;;;;;;4.43;100.00;101567.41;4904014;29;20047;-94
2024/01/13 12:25:53;;;;;;;17.50;13.10;;;;;;;4.49;100.00;101558.38;4903662;29;20063;-94
2024/01/13 12:28:20;;;;;;;18.15;13.13;;;;;;;4.52;100.00;101553.00;4901613;29;20032;-95
2024/01/13 12:30:49;;;;;;;18.65;13.48;;;;;;;4.54;100.00;101542.47;4887191;29;20171;-95
2024/01/13 12:33:16;;;;;;;19.17;13.23;;;;;;;4.61;100.00;101542.97;4885593;29;20397;-94
2024/01/13 12:35:42;;;;;;;19.80;14.07;;;;;;;4.58;100.00;101539.59;4879529;29;20084;-94
2024/01/13 12:38:09;;;;;;;22.70;14.20;;;;;;;4.63;100.00;101531.50;4913487;29;20039;-95
2024/01/13 12:40:35;;;;;;;18.02;13.07;;;;;;;4.69;100.00;101531.19;4912063;29;20036;-94
2024/01/13 12:43:01;;;;;;;18.25;13.27;;;;;;;4.73;100.00;101526.63;4898376;29;20524;-95
2024/01/13 12:45:27;;;;;;;18.92;13.65;;;;;;;4.79;100.00;101521.09;4886533;29;20481;-96
2024/01/13 12:47:54;;;;;;;19.20;13.82;;;;;;;4.83;100.00;101525.25;4896771;29;20049;-96
2024/01/13 12:50:20;;;;;;;17.20;13.38;;;;;;;4.90;100.00;101514.44;4896026;29;20043;-95
2024/01/13 12:52:47;;;;;;;20.15;13.45;;;;;;;4.98;100.00;101509.66;4900174;29;20039;-95
2024/01/13 12:55:13;;;;;;;19.98;13.30;;;;;;;4.99;100.00;101506.09;4901683;29;20110;-95
2024/01/13 12:57:39;;;;;;;23.23;13.82;;;;;;;5.05;100.00;101502.28;4885963;29;20075;-95
2024/01/13 13:00:06;;;;;;;22.92;14.77;;;;;;;5.08;100.00;101489.88;4914304;29;20074;-95
2024/01/13 13:02:34;;;;;;;20.60;14.18;;;;;;;5.14;100.00;101487.84;4901139;29;20043;-95
2024/01/13 13:05:01;;;;;;;17.38;13.52;;;;;;;5.18;100.00;101486.75;4894941;29;20172;-96
2024/01/13 13:07:28;;;;;;;17.42;13.35;;;;;;;5.18;100.00;101479.75;4880692;29;20551;-96
2024/01/13 13:09:57;;;;;;;21.05;15.40;;;;;;;5.34;100.00;101484.16;4894236;29;20036;-95